sensor_id;sensor_type;location;lat;lon;timestamp;P1;durP1;ratioP1;P2;durP2;ratioP2
71769;SDS011;66386;52.122;5.420;2023-07-13T00:00:09;7.17;;;0.90;;
71769;SDS011;66386;52.122;5.420;2023-07-13T00:02:36;5.15;;;1.10;;
71769;SDS011;66386;52.122;5.420;2023-07-13T00:05:03;4.43;;;0.88;;
71769;SDS011;66386;52.122;5.420;2023-07-13T00:07:29;6.15;;;0.95;;
71769;SDS011;66386;52.122;5.420;2023-07-13T00:09:57;2.65;;;0.80;;
71769;SDS011;66386;52.122;5.420;2023-07-13T00:12:29;4.33;;;0.67;;
71769;SDS011;66386;52.122;5.420;2023-07-13T00:14:59;5.90;;;1.58;;
71769;SDS011;66386;52.122;5.420;2023-07-13T00:17:29;7.07;;;1.10;;
71769;SDS011;66386;52.122;5.420;2023-07-13T00:19:56;6.57;;;1.08;;
71769;SDS011;66386;52.122;5.420;2023-07-13T00:22:23;5.28;;;0.80;;
71769;SDS011;66386;52.122;5.420;2023-07-13T00:24:52;6.13;;;0.63;;
71769;SDS011;66386;52.122;5.420;2023-07-13T00:27:21;7.57;;;1.00;;
71769;SDS011;66386;52.122;5.420;2023-07-13T00:29:49;5.32;;;0.77;;
71769;SDS011;66386;52.122;5.420;2023-07-13T00:32:15;3.88;;;1.27;;
71769;SDS011;66386;52.122;5.420;2023-07-13T00:34:42;2.67;;;0.75;;
71769;SDS011;66386;52.122;5.420;2023-07-13T00:37:09;4.77;;;0.87;;
71769;SDS011;66386;52.122;5.420;2023-07-13T00:39:37;5.63;;;0.73;;
71769;SDS011;66386;52.122;5.420;2023-07-13T00:42:05;5.72;;;0.75;;
71769;SDS011;66386;52.122;5.420;2023-07-13T00:44:32;3.17;;;0.73;;
71769;SDS011;66386;52.122;5.420;2023-07-13T00:46:59;4.60;;;0.85;;
71769;SDS011;66386;52.122;5.420;2023-07-13T00:49:26;3.73;;;0.60;;
71769;SDS011;66386;52.122;5.420;2023-07-13T00:51:59;4.88;;;1.20;;
71769;SDS011;66386;52.122;5.420;2023-07-13T00:55:02;5.20;;;1.25;;
71769;SDS011;66386;52.122;5.420;2023-07-13T00:57:22;4.70;;;0.95;;
71769;SDS011;66386;52.122;5.420;2023-07-13T00:59:54;4.55;;;0.80;;
71769;SDS011;66386;52.122;5.420;2023-07-13T01:02:24;5.03;;;0.70;;
71769;SDS011;66386;52.122;5.420;2023-07-13T01:04:52;6.55;;;0.60;;
71769;SDS011;66386;52.122;5.420;2023-07-13T01:07:18;5.70;;;0.90;;
71769;SDS011;66386;52.122;5.420;2023-07-13T01:09:45;4.90;;;0.98;;
71769;SDS011;66386;52.122;5.420;2023-07-13T01:12:12;5.18;;;0.80;;
71769;SDS011;66386;52.122;5.420;2023-07-13T01:14:40;4.13;;;0.70;;
71769;SDS011;66386;52.122;5.420;2023-07-13T01:17:08;3.20;;;0.80;;
71769;SDS011;66386;52.122;5.420;2023-07-13T01:19:37;6.68;;;0.90;;
71769;SDS011;66386;52.122;5.420;2023-07-13T01:22:07;7.03;;;1.98;;
71769;SDS011;66386;52.122;5.420;2023-07-13T01:24:39;3.03;;;0.60;;
71769;SDS011;66386;52.122;5.420;2023-07-13T01:27:09;2.87;;;0.67;;
71769;SDS011;66386;52.122;5.420;2023-07-13T01:29:37;4.45;;;1.30;;
71769;SDS011;66386;52.122;5.420;2023-07-13T01:32:12;3.35;;;0.70;;
71769;SDS011;66386;52.122;5.420;2023-07-13T01:34:43;4.85;;;0.68;;
71769;SDS011;66386;52.122;5.420;2023-07-13T01:37:11;4.40;;;0.90;;
71769;SDS011;66386;52.122;5.420;2023-07-13T01:39:38;7.37;;;0.97;;
71769;SDS011;66386;52.122;5.420;2023-07-13T01:42:05;7.70;;;1.13;;
71769;SDS011;66386;52.122;5.420;2023-07-13T01:44:32;4.25;;;0.90;;
71769;SDS011;66386;52.122;5.420;2023-07-13T01:46:59;4.45;;;0.70;;
71769;SDS011;66386;52.122;5.420;2023-07-13T01:49:25;6.57;;;1.10;;
71769;SDS011;66386;52.122;5.420;2023-07-13T01:51:52;6.03;;;1.30;;
71769;SDS011;66386;52.122;5.420;2023-07-13T01:54:18;2.63;;;0.88;;
71769;SDS011;66386;52.122;5.420;2023-07-13T01:56:45;3.28;;;1.10;;
71769;SDS011;66386;52.122;5.420;2023-07-13T01:59:11;4.40;;;0.90;;
71769;SDS011;66386;52.122;5.420;2023-07-13T02:01:38;4.60;;;0.80;;
71769;SDS011;66386;52.122;5.420;2023-07-13T02:04:05;6.77;;;1.20;;
71769;SDS011;66386;52.122;5.420;2023-07-13T02:06:31;5.50;;;0.95;;
71769;SDS011;66386;52.122;5.420;2023-07-13T02:08:58;1.55;;;0.70;;
71769;SDS011;66386;52.122;5.420;2023-07-13T02:11:25;4.85;;;0.70;;
71769;SDS011;66386;52.122;5.420;2023-07-13T02:13:59;4.70;;;0.80;;
71769;SDS011;66386;52.122;5.420;2023-07-13T02:16:28;6.50;;;0.73;;
71769;SDS011;66386;52.122;5.420;2023-07-13T02:18:55;6.88;;;1.17;;
71769;SDS011;66386;52.122;5.420;2023-07-13T02:21:23;7.15;;;1.15;;
71769;SDS011;66386;52.122;5.420;2023-07-13T02:23:50;6.78;;;0.90;;
71769;SDS011;66386;52.122;5.420;2023-07-13T02:26:16;3.80;;;0.90;;
71769;SDS011;66386;52.122;5.420;2023-07-13T02:28:43;6.03;;;1.10;;
71769;SDS011;66386;52.122;5.420;2023-07-13T02:31:11;7.25;;;1.23;;
71769;SDS011;66386;52.122;5.420;2023-07-13T02:33:39;8.25;;;1.50;;
71769;SDS011;66386;52.122;5.420;2023-07-13T02:36:06;5.50;;;0.98;;
71769;SDS011;66386;52.122;5.420;2023-07-13T02:38:33;8.43;;;1.15;;
71769;SDS011;66386;52.122;5.420;2023-07-13T02:41:01;4.67;;;1.60;;
71769;SDS011;66386;52.122;5.420;2023-07-13T02:43:31;9.32;;;1.15;;
71769;SDS011;66386;52.122;5.420;2023-07-13T02:45:58;6.82;;;0.88;;
71769;SDS011;66386;52.122;5.420;2023-07-13T02:48:30;4.85;;;1.00;;
71769;SDS011;66386;52.122;5.420;2023-07-13T02:50:56;6.40;;;0.90;;
71769;SDS011;66386;52.122;5.420;2023-07-13T02:53:23;2.67;;;0.70;;
71769;SDS011;66386;52.122;5.420;2023-07-13T02:55:50;7.20;;;1.08;;
71769;SDS011;66386;52.122;5.420;2023-07-13T02:58:16;3.92;;;0.95;;
71769;SDS011;66386;52.122;5.420;2023-07-13T03:00:44;8.02;;;1.10;;
71769;SDS011;66386;52.122;5.420;2023-07-13T03:03:13;8.32;;;0.98;;
71769;SDS011;66386;52.122;5.420;2023-07-13T03:05:41;5.43;;;0.97;;
71769;SDS011;66386;52.122;5.420;2023-07-13T03:08:09;9.65;;;1.38;;
71769;SDS011;66386;52.122;5.420;2023-07-13T03:10:36;5.68;;;0.90;;
71769;SDS011;66386;52.122;5.420;2023-07-13T03:13:04;6.30;;;1.45;;
71769;SDS011;66386;52.122;5.420;2023-07-13T03:15:30;4.80;;;1.20;;
71769;SDS011;66386;52.122;5.420;2023-07-13T03:17:57;4.77;;;1.00;;
71769;SDS011;66386;52.122;5.420;2023-07-13T03:20:24;5.45;;;1.08;;
71769;SDS011;66386;52.122;5.420;2023-07-13T03:22:50;3.63;;;1.15;;
71769;SDS011;66386;52.122;5.420;2023-07-13T03:25:17;5.82;;;1.40;;
71769;SDS011;66386;52.122;5.420;2023-07-13T03:27:43;4.97;;;1.05;;
71769;SDS011;66386;52.122;5.420;2023-07-13T03:30:10;5.73;;;1.07;;
71769;SDS011;66386;52.122;5.420;2023-07-13T03:32:37;4.47;;;1.30;;
71769;SDS011;66386;52.122;5.420;2023-07-13T03:35:04;7.82;;;1.20;;
71769;SDS011;66386;52.122;5.420;2023-07-13T03:37:30;6.03;;;1.30;;
71769;SDS011;66386;52.122;5.420;2023-07-13T03:39:57;7.22;;;1.80;;
71769;SDS011;66386;52.122;5.420;2023-07-13T03:42:24;3.83;;;1.40;;
71769;SDS011;66386;52.122;5.420;2023-07-13T03:44:53;5.75;;;1.73;;
71769;SDS011;66386;52.122;5.420;2023-07-13T03:47:19;4.80;;;1.25;;
71769;SDS011;66386;52.122;5.420;2023-07-13T03:49:46;4.80;;;1.10;;
71769;SDS011;66386;52.122;5.420;2023-07-13T03:52:13;5.32;;;1.63;;
71769;SDS011;66386;52.122;5.420;2023-07-13T03:54:39;5.47;;;1.80;;
71769;SDS011;66386;52.122;5.420;2023-07-13T03:57:06;7.28;;;1.30;;
71769;SDS011;66386;52.122;5.420;2023-07-13T03:59:32;6.32;;;1.67;;
71769;SDS011;66386;52.122;5.420;2023-07-13T04:02:00;6.55;;;1.15;;
71769;SDS011;66386;52.122;5.420;2023-07-13T04:04:27;4.38;;;1.27;;
71769;SDS011;66386;52.122;5.420;2023-07-13T04:06:54;5.43;;;1.33;;
71769;SDS011;66386;52.122;5.420;2023-07-13T04:09:21;7.57;;;1.88;;
71769;SDS011;66386;52.122;5.420;2023-07-13T04:11:47;8.30;;;2.05;;
71769;SDS011;66386;52.122;5.420;2023-07-13T04:14:14;7.80;;;1.75;;
71769;SDS011;66386;52.122;5.420;2023-07-13T04:16:41;8.57;;;1.70;;
71769;SDS011;66386;52.122;5.420;2023-07-13T04:19:08;4.37;;;1.63;;
71769;SDS011;66386;52.122;5.420;2023-07-13T04:21:36;9.57;;;1.80;;
71769;SDS011;66386;52.122;5.420;2023-07-13T04:24:03;9.50;;;2.40;;
71769;SDS011;66386;52.122;5.420;2023-07-13T04:26:30;10.98;;;1.55;;
71769;SDS011;66386;52.122;5.420;2023-07-13T04:28:57;5.90;;;1.60;;
71769;SDS011;66386;52.122;5.420;2023-07-13T04:31:24;5.50;;;1.50;;
71769;SDS011;66386;52.122;5.420;2023-07-13T04:33:50;8.43;;;2.20;;
71769;SDS011;66386;52.122;5.420;2023-07-13T04:36:17;7.72;;;2.35;;
71769;SDS011;66386;52.122;5.420;2023-07-13T04:38:44;6.55;;;1.98;;
71769;SDS011;66386;52.122;5.420;2023-07-13T04:41:11;5.72;;;1.80;;
71769;SDS011;66386;52.122;5.420;2023-07-13T04:43:39;9.83;;;2.57;;
71769;SDS011;66386;52.122;5.420;2023-07-13T04:46:15;6.65;;;1.90;;
71769;SDS011;66386;52.122;5.420;2023-07-13T04:48:46;9.48;;;2.00;;
71769;SDS011;66386;52.122;5.420;2023-07-13T04:51:13;10.13;;;1.90;;
71769;SDS011;66386;52.122;5.420;2023-07-13T04:53:39;8.82;;;2.15;;
71769;SDS011;66386;52.122;5.420;2023-07-13T04:56:06;8.17;;;2.20;;
71769;SDS011;66386;52.122;5.420;2023-07-13T04:58:33;7.20;;;2.00;;
71769;SDS011;66386;52.122;5.420;2023-07-13T05:01:01;11.40;;;2.20;;
71769;SDS011;66386;52.122;5.420;2023-07-13T05:03:32;9.55;;;2.17;;
71769;SDS011;66386;52.122;5.420;2023-07-13T05:06:00;9.75;;;2.33;;
71769;SDS011;66386;52.122;5.420;2023-07-13T05:08:31;6.40;;;1.83;;
71769;SDS011;66386;52.122;5.420;2023-07-13T05:11:02;11.85;;;2.70;;
71769;SDS011;66386;52.122;5.420;2023-07-13T05:13:31;9.90;;;1.80;;
71769;SDS011;66386;52.122;5.420;2023-07-13T05:15:58;8.75;;;2.25;;
71769;SDS011;66386;52.122;5.420;2023-07-13T05:18:29;5.53;;;1.90;;
71769;SDS011;66386;52.122;5.420;2023-07-13T05:21:07;6.70;;;2.70;;
71769;SDS011;66386;52.122;5.420;2023-07-13T05:23:35;13.85;;;2.67;;
71769;SDS011;66386;52.122;5.420;2023-07-13T05:26:03;10.73;;;2.15;;
71769;SDS011;66386;52.122;5.420;2023-07-13T05:28:34;8.48;;;2.20;;
71769;SDS011;66386;52.122;5.420;2023-07-13T05:31:03;8.27;;;2.42;;
71769;SDS011;66386;52.122;5.420;2023-07-13T05:33:30;9.50;;;3.17;;
71769;SDS011;66386;52.122;5.420;2023-07-13T05:35:56;10.43;;;2.80;;
71769;SDS011;66386;52.122;5.420;2023-07-13T05:38:23;7.50;;;2.35;;
71769;SDS011;66386;52.122;5.420;2023-07-13T05:40:50;10.30;;;3.55;;
71769;SDS011;66386;52.122;5.420;2023-07-13T05:43:17;12.88;;;4.13;;
71769;SDS011;66386;52.122;5.420;2023-07-13T05:45:43;9.10;;;3.50;;
71769;SDS011;66386;52.122;5.420;2023-07-13T05:48:10;10.77;;;3.50;;
71769;SDS011;66386;52.122;5.420;2023-07-13T05:50:37;12.88;;;4.07;;
71769;SDS011;66386;52.122;5.420;2023-07-13T05:53:04;14.75;;;4.07;;
71769;SDS011;66386;52.122;5.420;2023-07-13T05:55:31;15.65;;;5.03;;
71769;SDS011;66386;52.122;5.420;2023-07-13T05:57:59;9.93;;;4.43;;
71769;SDS011;66386;52.122;5.420;2023-07-13T06:00:26;7.63;;;4.00;;
71769;SDS011;66386;52.122;5.420;2023-07-13T06:02:53;12.05;;;4.53;;
71769;SDS011;66386;52.122;5.420;2023-07-13T06:05:20;13.07;;;4.38;;
71769;SDS011;66386;52.122;5.420;2023-07-13T06:07:46;12.60;;;4.10;;
71769;SDS011;66386;52.122;5.420;2023-07-13T06:10:13;12.87;;;4.10;;
71769;SDS011;66386;52.122;5.420;2023-07-13T06:12:39;14.93;;;5.65;;
71769;SDS011;66386;52.122;5.420;2023-07-13T06:15:06;12.98;;;4.75;;
71769;SDS011;66386;52.122;5.420;2023-07-13T06:17:33;13.75;;;4.50;;
71769;SDS011;66386;52.122;5.420;2023-07-13T06:20:00;9.80;;;4.97;;
71769;SDS011;66386;52.122;5.420;2023-07-13T06:22:26;11.73;;;4.57;;
71769;SDS011;66386;52.122;5.420;2023-07-13T06:24:53;12.07;;;4.65;;
71769;SDS011;66386;52.122;5.420;2023-07-13T06:27:19;13.55;;;4.82;;
71769;SDS011;66386;52.122;5.420;2023-07-13T06:29:46;9.73;;;4.40;;
71769;SDS011;66386;52.122;5.420;2023-07-13T06:32:12;12.70;;;4.97;;
71769;SDS011;66386;52.122;5.420;2023-07-13T06:34:39;10.37;;;4.57;;
71769;SDS011;66386;52.122;5.420;2023-07-13T06:37:08;13.02;;;4.57;;
71769;SDS011;66386;52.122;5.420;2023-07-13T06:39:36;9.55;;;5.15;;
71769;SDS011;66386;52.122;5.420;2023-07-13T06:42:02;11.02;;;5.10;;
71769;SDS011;66386;52.122;5.420;2023-07-13T06:44:29;9.82;;;4.03;;
71769;SDS011;66386;52.122;5.420;2023-07-13T06:46:56;12.50;;;5.10;;
71769;SDS011;66386;52.122;5.420;2023-07-13T06:49:22;12.10;;;5.00;;
71769;SDS011;66386;52.122;5.420;2023-07-13T06:51:49;8.55;;;4.43;;
71769;SDS011;66386;52.122;5.420;2023-07-13T06:54:16;14.75;;;5.65;;
71769;SDS011;66386;52.122;5.420;2023-07-13T06:56:42;9.45;;;5.53;;
71769;SDS011;66386;52.122;5.420;2023-07-13T06:59:09;13.80;;;5.70;;
71769;SDS011;66386;52.122;5.420;2023-07-13T07:01:35;12.27;;;4.93;;
71769;SDS011;66386;52.122;5.420;2023-07-13T07:04:05;11.57;;;5.47;;
71769;SDS011;66386;52.122;5.420;2023-07-13T07:06:32;17.25;;;5.25;;
71769;SDS011;66386;52.122;5.420;2023-07-13T07:08:59;9.73;;;5.05;;
71769;SDS011;66386;52.122;5.420;2023-07-13T07:11:25;13.63;;;5.17;;
71769;SDS011;66386;52.122;5.420;2023-07-13T07:13:52;13.80;;;5.22;;
71769;SDS011;66386;52.122;5.420;2023-07-13T07:16:20;13.27;;;5.72;;
71769;SDS011;66386;52.122;5.420;2023-07-13T07:18:47;9.38;;;5.70;;
71769;SDS011;66386;52.122;5.420;2023-07-13T07:21:14;14.05;;;5.28;;
71769;SDS011;66386;52.122;5.420;2023-07-13T07:23:43;10.87;;;4.97;;
71769;SDS011;66386;52.122;5.420;2023-07-13T07:26:09;13.25;;;5.75;;
71769;SDS011;66386;52.122;5.420;2023-07-13T07:28:36;9.88;;;5.70;;
71769;SDS011;66386;52.122;5.420;2023-07-13T07:31:07;18.42;;;5.93;;
71769;SDS011;66386;52.122;5.420;2023-07-13T07:33:37;16.30;;;6.00;;
71769;SDS011;66386;52.122;5.420;2023-07-13T07:36:04;14.80;;;6.47;;
71769;SDS011;66386;52.122;5.420;2023-07-13T07:38:34;10.02;;;5.53;;
71769;SDS011;66386;52.122;5.420;2023-07-13T07:41:02;11.77;;;5.25;;
71769;SDS011;66386;52.122;5.420;2023-07-13T07:43:33;11.13;;;5.65;;
71769;SDS011;66386;52.122;5.420;2023-07-13T07:45:59;13.75;;;6.13;;
71769;SDS011;66386;52.122;5.420;2023-07-13T07:48:29;14.70;;;5.70;;
71769;SDS011;66386;52.122;5.420;2023-07-13T07:50:55;15.05;;;6.78;;
71769;SDS011;66386;52.122;5.420;2023-07-13T07:53:22;13.55;;;6.85;;
71769;SDS011;66386;52.122;5.420;2023-07-13T07:55:49;15.07;;;6.32;;
71769;SDS011;66386;52.122;5.420;2023-07-13T07:58:18;11.95;;;5.90;;
71769;SDS011;66386;52.122;5.420;2023-07-13T08:00:48;13.13;;;6.30;;
71769;SDS011;66386;52.122;5.420;2023-07-13T08:03:17;11.77;;;6.13;;
71769;SDS011;66386;52.122;5.420;2023-07-13T08:05:47;14.68;;;5.28;;
71769;SDS011;66386;52.122;5.420;2023-07-13T08:08:34;11.48;;;6.20;;
71769;SDS011;66386;52.122;5.420;2023-07-13T08:11:04;9.00;;;5.18;;
71769;SDS011;66386;52.122;5.420;2023-07-13T08:13:36;8.60;;;4.90;;
71769;SDS011;66386;52.122;5.420;2023-07-13T08:16:04;11.57;;;4.97;;
71769;SDS011;66386;52.122;5.420;2023-07-13T08:18:31;10.15;;;4.70;;
71769;SDS011;66386;52.122;5.420;2023-07-13T08:21:02;10.48;;;4.78;;
71769;SDS011;66386;52.122;5.420;2023-07-13T08:23:30;11.20;;;4.18;;
71769;SDS011;66386;52.122;5.420;2023-07-13T08:25:59;11.40;;;4.33;;
71769;SDS011;66386;52.122;5.420;2023-07-13T08:28:27;9.05;;;4.00;;
71769;SDS011;66386;52.122;5.420;2023-07-13T08:30:54;8.82;;;4.00;;
71769;SDS011;66386;52.122;5.420;2023-07-13T08:33:21;10.00;;;4.05;;
71769;SDS011;66386;52.122;5.420;2023-07-13T08:35:51;9.20;;;4.18;;
71769;SDS011;66386;52.122;5.420;2023-07-13T08:38:20;7.47;;;3.60;;
71769;SDS011;66386;52.122;5.420;2023-07-13T08:40:53;6.18;;;3.40;;
71769;SDS011;66386;52.122;5.420;2023-07-13T08:43:24;6.57;;;2.67;;
71769;SDS011;66386;52.122;5.420;2023-07-13T08:46:06;8.55;;;2.53;;
71769;SDS011;66386;52.122;5.420;2023-07-13T08:48:49;4.93;;;2.28;;
71769;SDS011;66386;52.122;5.420;2023-07-13T08:56:57;3.80;;;1.23;;
71769;SDS011;66386;52.122;5.420;2023-07-13T08:59:28;4.57;;;1.40;;
71769;SDS011;66386;52.122;5.420;2023-07-13T09:05:04;3.43;;;1.30;;
71769;SDS011;66386;52.122;5.420;2023-07-13T09:10:15;3.25;;;1.30;;
71769;SDS011;66386;52.122;5.420;2023-07-13T09:15:28;3.55;;;1.27;;
71769;SDS011;66386;52.122;5.420;2023-07-13T09:18:00;4.27;;;1.70;;
71769;SDS011;66386;52.122;5.420;2023-07-13T09:20:32;6.22;;;1.65;;
71769;SDS011;66386;52.122;5.420;2023-07-13T09:23:04;4.40;;;1.55;;
71769;SDS011;66386;52.122;5.420;2023-07-13T09:25:38;4.90;;;1.70;;
71769;SDS011;66386;52.122;5.420;2023-07-13T09:28:13;4.43;;;1.27;;
71769;SDS011;66386;52.122;5.420;2023-07-13T09:33:30;4.10;;;1.52;;
71769;SDS011;66386;52.122;5.420;2023-07-13T09:35:58;4.13;;;1.50;;
71769;SDS011;66386;52.122;5.420;2023-07-13T09:38:26;2.80;;;1.30;;
71769;SDS011;66386;52.122;5.420;2023-07-13T09:46:35;3.28;;;1.38;;
71769;SDS011;66386;52.122;5.420;2023-07-13T09:49:02;2.40;;;1.10;;
71769;SDS011;66386;52.122;5.420;2023-07-13T09:51:29;4.50;;;1.10;;
71769;SDS011;66386;52.122;5.420;2023-07-13T09:53:55;4.65;;;1.55;;
71769;SDS011;66386;52.122;5.420;2023-07-13T09:56:26;4.57;;;1.50;;
71769;SDS011;66386;52.122;5.420;2023-07-13T09:58:56;6.35;;;1.63;;
71769;SDS011;66386;52.122;5.420;2023-07-13T10:01:37;3.13;;;1.50;;
71769;SDS011;66386;52.122;5.420;2023-07-13T10:04:12;2.85;;;1.33;;
71769;SDS011;66386;52.122;5.420;2023-07-13T10:06:40;2.30;;;1.17;;
71769;SDS011;66386;52.122;5.420;2023-07-13T10:09:10;3.83;;;1.30;;
71769;SDS011;66386;52.122;5.420;2023-07-13T10:11:41;3.92;;;1.50;;
71769;SDS011;66386;52.122;5.420;2023-07-13T10:14:12;3.20;;;1.48;;
71769;SDS011;66386;52.122;5.420;2023-07-13T10:16:42;2.63;;;1.02;;
71769;SDS011;66386;52.122;5.420;2023-07-13T10:19:12;2.58;;;1.70;;
71769;SDS011;66386;52.122;5.420;2023-07-13T10:24:22;2.95;;;1.25;;
71769;SDS011;66386;52.122;5.420;2023-07-13T10:26:58;3.80;;;1.40;;
71769;SDS011;66386;52.122;5.420;2023-07-13T10:29:36;4.05;;;1.55;;
71769;SDS011;66386;52.122;5.420;2023-07-13T10:32:10;4.18;;;1.77;;
71769;SDS011;66386;52.122;5.420;2023-07-13T10:34:40;4.20;;;1.63;;
71769;SDS011;66386;52.122;5.420;2023-07-13T10:37:30;5.45;;;1.75;;
71769;SDS011;66386;52.122;5.420;2023-07-13T10:40:12;2.95;;;1.70;;
71769;SDS011;66386;52.122;5.420;2023-07-13T10:42:46;6.30;;;1.73;;
71769;SDS011;66386;52.122;5.420;2023-07-13T10:45:18;3.22;;;1.33;;
71769;SDS011;66386;52.122;5.420;2023-07-13T10:47:47;3.70;;;1.50;;
71769;SDS011;66386;52.122;5.420;2023-07-13T10:50:20;2.88;;;1.20;;
71769;SDS011;66386;52.122;5.420;2023-07-13T10:52:53;2.15;;;1.45;;
71769;SDS011;66386;52.122;5.420;2023-07-13T10:55:30;2.78;;;1.35;;
71769;SDS011;66386;52.122;5.420;2023-07-13T10:58:21;3.30;;;1.55;;
71769;SDS011;66386;52.122;5.420;2023-07-13T11:01:12;2.90;;;1.30;;
71769;SDS011;66386;52.122;5.420;2023-07-13T11:03:54;2.50;;;1.30;;
71769;SDS011;66386;52.122;5.420;2023-07-13T11:08:56;2.58;;;1.33;;
71769;SDS011;66386;52.122;5.420;2023-07-13T11:14:03;1.33;;;0.70;;
71769;SDS011;66386;52.122;5.420;2023-07-13T11:16:36;1.77;;;1.00;;
71769;SDS011;66386;52.122;5.420;2023-07-13T11:27:21;4.53;;;1.80;;
71769;SDS011;66386;52.122;5.420;2023-07-13T11:38:19;3.83;;;1.50;;
71769;SDS011;66386;52.122;5.420;2023-07-13T11:40:50;3.23;;;1.50;;
71769;SDS011;66386;52.122;5.420;2023-07-13T11:43:21;4.00;;;1.33;;
71769;SDS011;66386;52.122;5.420;2023-07-13T11:45:52;4.13;;;1.55;;
71769;SDS011;66386;52.122;5.420;2023-07-13T11:48:27;3.47;;;1.45;;
71769;SDS011;66386;52.122;5.420;2023-07-13T11:51:03;3.65;;;1.38;;
71769;SDS011;66386;52.122;5.420;2023-07-13T11:53:37;3.87;;;1.53;;
71769;SDS011;66386;52.122;5.420;2023-07-13T11:56:06;4.60;;;1.33;;
71769;SDS011;66386;52.122;5.420;2023-07-13T11:58:34;5.60;;;1.70;;
71769;SDS011;66386;52.122;5.420;2023-07-13T12:01:01;5.40;;;1.95;;
71769;SDS011;66386;52.122;5.420;2023-07-13T12:03:32;2.95;;;1.70;;
71769;SDS011;66386;52.122;5.420;2023-07-13T12:06:05;5.00;;;1.80;;
71769;SDS011;66386;52.122;5.420;2023-07-13T12:08:37;3.40;;;1.70;;
71769;SDS011;66386;52.122;5.420;2023-07-13T12:11:12;5.93;;;2.00;;
71769;SDS011;66386;52.122;5.420;2023-07-13T12:13:43;4.47;;;1.67;;
71769;SDS011;66386;52.122;5.420;2023-07-13T12:16:15;4.97;;;1.95;;
71769;SDS011;66386;52.122;5.420;2023-07-13T12:18:48;4.63;;;1.87;;
71769;SDS011;66386;52.122;5.420;2023-07-13T12:21:16;2.83;;;1.92;;
71769;SDS011;66386;52.122;5.420;2023-07-13T12:23:47;4.60;;;1.65;;
71769;SDS011;66386;52.122;5.420;2023-07-13T12:26:15;3.40;;;1.30;;
71769;SDS011;66386;52.122;5.420;2023-07-13T12:31:24;4.30;;;1.63;;
71769;SDS011;66386;52.122;5.420;2023-07-13T12:36:37;3.53;;;1.77;;
71769;SDS011;66386;52.122;5.420;2023-07-13T12:39:16;3.67;;;1.85;;
71769;SDS011;66386;52.122;5.420;2023-07-13T12:41:50;4.88;;;1.50;;
71769;SDS011;66386;52.122;5.420;2023-07-13T12:44:19;4.40;;;1.70;;
71769;SDS011;66386;52.122;5.420;2023-07-13T12:46:53;4.95;;;1.40;;
71769;SDS011;66386;52.122;5.420;2023-07-13T12:49:32;4.60;;;1.77;;
71769;SDS011;66386;52.122;5.420;2023-07-13T12:52:02;4.78;;;1.50;;
71769;SDS011;66386;52.122;5.420;2023-07-13T12:54:40;6.65;;;1.63;;
71769;SDS011;66386;52.122;5.420;2023-07-13T12:57:17;2.77;;;1.40;;
71769;SDS011;66386;52.122;5.420;2023-07-13T12:59:44;4.63;;;1.50;;
71769;SDS011;66386;52.122;5.420;2023-07-13T13:02:26;2.80;;;1.55;;
71769;SDS011;66386;52.122;5.420;2023-07-13T13:04:58;4.15;;;1.50;;
71769;SDS011;66386;52.122;5.420;2023-07-13T13:07:25;2.58;;;1.50;;
71769;SDS011;66386;52.122;5.420;2023-07-13T13:09:52;5.57;;;1.63;;
71769;SDS011;66386;52.122;5.420;2023-07-13T13:12:22;3.03;;;1.65;;
71769;SDS011;66386;52.122;5.420;2023-07-13T13:14:52;4.10;;;1.52;;
71769;SDS011;66386;52.122;5.420;2023-07-13T13:17:20;3.00;;;1.20;;
71769;SDS011;66386;52.122;5.420;2023-07-13T13:19:53;4.78;;;1.52;;
71769;SDS011;66386;52.122;5.420;2023-07-13T13:22:21;2.53;;;1.27;;
71769;SDS011;66386;52.122;5.420;2023-07-13T13:24:48;2.70;;;1.02;;
71769;SDS011;66386;52.122;5.420;2023-07-13T13:27:15;2.00;;;1.33;;
71769;SDS011;66386;52.122;5.420;2023-07-13T13:29:44;7.28;;;1.90;;
71769;SDS011;66386;52.122;5.420;2023-07-13T13:32:11;4.55;;;1.33;;
71769;SDS011;66386;52.122;5.420;2023-07-13T13:34:39;5.03;;;1.30;;
71769;SDS011;66386;52.122;5.420;2023-07-13T13:37:16;2.28;;;1.10;;
71769;SDS011;66386;52.122;5.420;2023-07-13T13:39:48;5.13;;;1.50;;
71769;SDS011;66386;52.122;5.420;2023-07-13T13:42:33;2.70;;;1.58;;
71769;SDS011;66386;52.122;5.420;2023-07-13T13:44:59;4.50;;;1.45;;
71769;SDS011;66386;52.122;5.420;2023-07-13T13:47:30;3.43;;;1.37;;
71769;SDS011;66386;52.122;5.420;2023-07-13T13:49:59;2.65;;;1.30;;
71769;SDS011;66386;52.122;5.420;2023-07-13T13:52:26;2.13;;;1.20;;
71769;SDS011;66386;52.122;5.420;2023-07-13T13:54:53;5.07;;;1.55;;
71769;SDS011;66386;52.122;5.420;2023-07-13T13:57:23;4.60;;;1.55;;
71769;SDS011;66386;52.122;5.420;2023-07-13T13:59:51;3.50;;;1.13;;
71769;SDS011;66386;52.122;5.420;2023-07-13T14:02:22;5.15;;;1.33;;
71769;SDS011;66386;52.122;5.420;2023-07-13T14:04:56;2.88;;;1.77;;
71769;SDS011;66386;52.122;5.420;2023-07-13T14:07:25;2.17;;;1.40;;
71769;SDS011;66386;52.122;5.420;2023-07-13T14:09:53;2.85;;;1.58;;
71769;SDS011;66386;52.122;5.420;2023-07-13T14:12:26;4.10;;;1.40;;
71769;SDS011;66386;52.122;5.420;2023-07-13T14:14:55;5.40;;;1.63;;
71769;SDS011;66386;52.122;5.420;2023-07-13T14:17:25;4.25;;;1.38;;
71769;SDS011;66386;52.122;5.420;2023-07-13T14:19:53;3.63;;;1.42;;
71769;SDS011;66386;52.122;5.420;2023-07-13T14:22:24;2.33;;;1.50;;
71769;SDS011;66386;52.122;5.420;2023-07-13T14:24:52;3.97;;;1.43;;
71769;SDS011;66386;52.122;5.420;2023-07-13T14:27:20;6.75;;;1.65;;
71769;SDS011;66386;52.122;5.420;2023-07-13T14:29:48;4.03;;;1.67;;
71769;SDS011;66386;52.122;5.420;2023-07-13T14:32:14;2.78;;;1.42;;
71769;SDS011;66386;52.122;5.420;2023-07-13T14:34:41;3.03;;;1.25;;
71769;SDS011;66386;52.122;5.420;2023-07-13T14:37:23;4.43;;;1.60;;
71769;SDS011;66386;52.122;5.420;2023-07-13T14:39:50;1.98;;;1.40;;
71769;SDS011;66386;52.122;5.420;2023-07-13T14:42:18;3.80;;;1.50;;
71769;SDS011;66386;52.122;5.420;2023-07-13T14:44:44;2.05;;;1.15;;
71769;SDS011;66386;52.122;5.420;2023-07-13T14:47:11;3.30;;;1.02;;
71769;SDS011;66386;52.122;5.420;2023-07-13T14:49:38;3.57;;;1.30;;
71769;SDS011;66386;52.122;5.420;2023-07-13T14:52:18;4.25;;;1.45;;
71769;SDS011;66386;52.122;5.420;2023-07-13T14:54:46;3.08;;;1.00;;
71769;SDS011;66386;52.122;5.420;2023-07-13T14:57:14;3.58;;;1.20;;
71769;SDS011;66386;52.122;5.420;2023-07-13T14:59:43;5.95;;;1.23;;
71769;SDS011;66386;52.122;5.420;2023-07-13T15:02:17;5.80;;;1.37;;
71769;SDS011;66386;52.122;5.420;2023-07-13T15:04:47;2.90;;;1.15;;
71769;SDS011;66386;52.122;5.420;2023-07-13T15:07:14;3.45;;;1.45;;
71769;SDS011;66386;52.122;5.420;2023-07-13T15:09:42;5.88;;;1.45;;
71769;SDS011;66386;52.122;5.420;2023-07-13T15:12:09;2.88;;;1.20;;
71769;SDS011;66386;52.122;5.420;2023-07-13T15:14:36;2.80;;;1.30;;
71769;SDS011;66386;52.122;5.420;2023-07-13T15:17:02;4.03;;;1.25;;
71769;SDS011;66386;52.122;5.420;2023-07-13T15:19:30;2.72;;;1.33;;
71769;SDS011;66386;52.122;5.420;2023-07-13T15:21:57;4.60;;;1.55;;
71769;SDS011;66386;52.122;5.420;2023-07-13T15:24:24;4.28;;;1.60;;
71769;SDS011;66386;52.122;5.420;2023-07-13T15:26:52;4.43;;;1.10;;
71769;SDS011;66386;52.122;5.420;2023-07-13T15:29:18;5.53;;;2.45;;
71769;SDS011;66386;52.122;5.420;2023-07-13T15:31:45;4.20;;;1.80;;
71769;SDS011;66386;52.122;5.420;2023-07-13T15:34:14;3.17;;;1.70;;
71769;SDS011;66386;52.122;5.420;2023-07-13T15:36:43;4.40;;;1.20;;
71769;SDS011;66386;52.122;5.420;2023-07-13T15:39:13;2.50;;;1.30;;
71769;SDS011;66386;52.122;5.420;2023-07-13T15:41:42;2.65;;;1.40;;
71769;SDS011;66386;52.122;5.420;2023-07-13T15:46:57;4.85;;;1.10;;
71769;SDS011;66386;52.122;5.420;2023-07-13T15:49:26;3.97;;;1.25;;
71769;SDS011;66386;52.122;5.420;2023-07-13T15:51:53;2.17;;;1.00;;